sensor_id;sensor_type;location;lat;lon;timestamp;temperature;humidity
78793;SHT31;68134;51.984;5.652;2023-07-08T00:00:56;22.0;49.8
78793;SHT31;68134;51.984;5.652;2023-07-08T00:03:24;22.0;49.5
78793;SHT31;68134;51.984;5.652;2023-07-08T00:05:55;22.0;49.7
78793;SHT31;68134;51.984;5.652;2023-07-08T00:08:25;21.9;49.5
78793;SHT31;68134;51.984;5.652;2023-07-08T00:10:54;21.9;49.5
78793;SHT31;68134;51.984;5.652;2023-07-08T00:13:23;21.9;50.5
78793;SHT31;68134;51.984;5.652;2023-07-08T00:15:51;21.8;49.6
78793;SHT31;68134;51.984;5.652;2023-07-08T00:18:20;21.8;49.1
78793;SHT31;68134;51.984;5.652;2023-07-08T00:20:50;21.8;49.1
78793;SHT31;68134;51.984;5.652;2023-07-08T00:23:18;21.7;49.6
78793;SHT31;68134;51.984;5.652;2023-07-08T00:25:48;21.7;49.7
78793;SHT31;68134;51.984;5.652;2023-07-08T00:28:19;21.7;49.6
78793;SHT31;68134;51.984;5.652;2023-07-08T00:30:48;21.7;49.1
78793;SHT31;68134;51.984;5.652;2023-07-08T00:33:17;21.7;50.0
78793;SHT31;68134;51.984;5.652;2023-07-08T00:35:46;21.7;50.1
78793;SHT31;68134;51.984;5.652;2023-07-08T00:38:22;21.6;50.8
78793;SHT31;68134;51.984;5.652;2023-07-08T00:41:04;21.6;49.5
78793;SHT31;68134;51.984;5.652;2023-07-08T00:43:38;21.6;49.3
78793;SHT31;68134;51.984;5.652;2023-07-08T00:46:25;21.6;50.0
78793;SHT31;68134;51.984;5.652;2023-07-08T00:49:00;21.6;51.9
78793;SHT31;68134;51.984;5.652;2023-07-08T00:51:30;21.6;50.7
78793;SHT31;68134;51.984;5.652;2023-07-08T00:53:59;21.5;50.2
78793;SHT31;68134;51.984;5.652;2023-07-08T00:56:32;21.5;51.1
78793;SHT31;68134;51.984;5.652;2023-07-08T00:59:02;21.5;50.9
78793;SHT31;68134;51.984;5.652;2023-07-08T01:01:36;21.5;50.8
78793;SHT31;68134;51.984;5.652;2023-07-08T01:04:09;21.4;51.0
78793;SHT31;68134;51.984;5.652;2023-07-08T01:06:43;21.4;51.1
78793;SHT31;68134;51.984;5.652;2023-07-08T01:09:15;21.4;50.8
78793;SHT31;68134;51.984;5.652;2023-07-08T01:11:45;21.3;51.0
78793;SHT31;68134;51.984;5.652;2023-07-08T01:14:17;21.3;50.5
78793;SHT31;68134;51.984;5.652;2023-07-08T01:16:48;21.3;50.6
78793;SHT31;68134;51.984;5.652;2023-07-08T01:19:21;21.2;50.9
78793;SHT31;68134;51.984;5.652;2023-07-08T01:22:00;21.2;50.8
78793;SHT31;68134;51.984;5.652;2023-07-08T01:24:31;21.2;50.7
78793;SHT31;68134;51.984;5.652;2023-07-08T01:27:05;21.4;50.3
78793;SHT31;68134;51.984;5.652;2023-07-08T01:29:34;21.3;50.4
78793;SHT31;68134;51.984;5.652;2023-07-08T01:32:04;21.3;50.0
78793;SHT31;68134;51.984;5.652;2023-07-08T01:34:34;21.3;50.2
78793;SHT31;68134;51.984;5.652;2023-07-08T01:37:06;21.3;50.1
78793;SHT31;68134;51.984;5.652;2023-07-08T01:39:35;21.3;50.4
78793;SHT31;68134;51.984;5.652;2023-07-08T01:42:03;21.3;49.9
78793;SHT31;68134;51.984;5.652;2023-07-08T01:44:35;21.3;50.5
78793;SHT31;68134;51.984;5.652;2023-07-08T01:47:10;21.3;51.0
78793;SHT31;68134;51.984;5.652;2023-07-08T01:49:41;21.2;50.4
78793;SHT31;68134;51.984;5.652;2023-07-08T01:52:12;21.2;50.7
78793;SHT31;68134;51.984;5.652;2023-07-08T01:54:41;21.2;51.2
78793;SHT31;68134;51.984;5.652;2023-07-08T01:57:09;21.1;50.9
78793;SHT31;68134;51.984;5.652;2023-07-08T01:59:39;21.1;50.9
78793;SHT31;68134;51.984;5.652;2023-07-08T02:02:12;21.1;51.0
78793;SHT31;68134;51.984;5.652;2023-07-08T02:04:40;21.1;50.9
78793;SHT31;68134;51.984;5.652;2023-07-08T02:07:09;21.0;51.0
78793;SHT31;68134;51.984;5.652;2023-07-08T02:09:37;21.0;51.6
78793;SHT31;68134;51.984;5.652;2023-07-08T02:12:06;21.0;51.9
78793;SHT31;68134;51.984;5.652;2023-07-08T02:14:35;20.9;51.9
78793;SHT31;68134;51.984;5.652;2023-07-08T02:17:04;20.9;52.0
78793;SHT31;68134;51.984;5.652;2023-07-08T02:19:33;20.9;51.3
78793;SHT31;68134;51.984;5.652;2023-07-08T02:22:01;20.9;51.9
78793;SHT31;68134;51.984;5.652;2023-07-08T02:24:30;20.8;51.8
78793;SHT31;68134;51.984;5.652;2023-07-08T02:26:59;20.8;52.7
78793;SHT31;68134;51.984;5.652;2023-07-08T02:29:28;20.8;51.8
78793;SHT31;68134;51.984;5.652;2023-07-08T02:31:58;20.8;51.9
78793;SHT31;68134;51.984;5.652;2023-07-08T02:34:26;20.7;52.3
78793;SHT31;68134;51.984;5.652;2023-07-08T02:36:55;20.7;53.3
78793;SHT31;68134;51.984;5.652;2023-07-08T02:39:23;20.7;52.8
78793;SHT31;68134;51.984;5.652;2023-07-08T02:41:52;20.7;52.7
78793;SHT31;68134;51.984;5.652;2023-07-08T02:44:20;20.6;52.8
78793;SHT31;68134;51.984;5.652;2023-07-08T02:46:49;20.6;53.5
78793;SHT31;68134;51.984;5.652;2023-07-08T02:49:17;20.6;52.7
78793;SHT31;68134;51.984;5.652;2023-07-08T02:51:46;20.5;53.4
78793;SHT31;68134;51.984;5.652;2023-07-08T02:54:15;20.5;53.2
78793;SHT31;68134;51.984;5.652;2023-07-08T02:56:43;20.5;54.5
78793;SHT31;68134;51.984;5.652;2023-07-08T02:59:12;20.5;54.2
78793;SHT31;68134;51.984;5.652;2023-07-08T03:01:40;20.5;54.1
78793;SHT31;68134;51.984;5.652;2023-07-08T03:04:10;20.4;54.2
78793;SHT31;68134;51.984;5.652;2023-07-08T03:06:40;20.4;53.7
78793;SHT31;68134;51.984;5.652;2023-07-08T03:09:11;20.4;54.6
78793;SHT31;68134;51.984;5.652;2023-07-08T03:11:40;20.3;53.9
78793;SHT31;68134;51.984;5.652;2023-07-08T03:14:09;20.3;54.8
78793;SHT31;68134;51.984;5.652;2023-07-08T03:16:37;20.3;54.9
78793;SHT31;68134;51.984;5.652;2023-07-08T03:19:07;20.3;56.0
78793;SHT31;68134;51.984;5.652;2023-07-08T03:21:37;20.2;55.0
78793;SHT31;68134;51.984;5.652;2023-07-08T03:24:08;20.2;56.2
78793;SHT31;68134;51.984;5.652;2023-07-08T03:26:37;20.2;55.0
78793;SHT31;68134;51.984;5.652;2023-07-08T03:29:15;20.2;56.2
78793;SHT31;68134;51.984;5.652;2023-07-08T03:31:44;20.1;56.2
78793;SHT31;68134;51.984;5.652;2023-07-08T03:34:15;20.1;55.9
78793;SHT31;68134;51.984;5.652;2023-07-08T03:36:48;20.1;56.4
78793;SHT31;68134;51.984;5.652;2023-07-08T03:39:18;20.0;56.5
78793;SHT31;68134;51.984;5.652;2023-07-08T03:41:48;20.0;56.4
78793;SHT31;68134;51.984;5.652;2023-07-08T03:44:19;20.0;56.5
78793;SHT31;68134;51.984;5.652;2023-07-08T03:46:49;20.0;57.5
78793;SHT31;68134;51.984;5.652;2023-07-08T03:49:19;20.0;57.3
78793;SHT31;68134;51.984;5.652;2023-07-08T03:51:51;19.9;56.9
78793;SHT31;68134;51.984;5.652;2023-07-08T03:54:21;19.9;57.6
78793;SHT31;68134;51.984;5.652;2023-07-08T03:56:52;19.9;57.7
78793;SHT31;68134;51.984;5.652;2023-07-08T03:59:21;19.9;57.6
78793;SHT31;68134;51.984;5.652;2023-07-08T04:01:49;19.9;58.1
78793;SHT31;68134;51.984;5.652;2023-07-08T04:04:19;19.8;57.8
78793;SHT31;68134;51.984;5.652;2023-07-08T04:06:48;19.8;58.1
78793;SHT31;68134;51.984;5.652;2023-07-08T04:09:18;19.8;57.8
78793;SHT31;68134;51.984;5.652;2023-07-08T04:11:48;19.8;57.9
78793;SHT31;68134;51.984;5.652;2023-07-08T04:14:16;19.7;58.6
78793;SHT31;68134;51.984;5.652;2023-07-08T04:16:50;19.7;58.5
78793;SHT31;68134;51.984;5.652;2023-07-08T04:19:19;19.7;58.3
78793;SHT31;68134;51.984;5.652;2023-07-08T04:21:49;19.7;59.1
78793;SHT31;68134;51.984;5.652;2023-07-08T04:24:18;19.7;58.6
78793;SHT31;68134;51.984;5.652;2023-07-08T04:26:48;19.7;58.8
78793;SHT31;68134;51.984;5.652;2023-07-08T04:29:19;19.7;57.7
78793;SHT31;68134;51.984;5.652;2023-07-08T04:31:48;19.7;57.2
78793;SHT31;68134;51.984;5.652;2023-07-08T04:34:17;19.7;58.4
78793;SHT31;68134;51.984;5.652;2023-07-08T04:36:46;19.7;59.3
78793;SHT31;68134;51.984;5.652;2023-07-08T04:39:15;19.7;59.1
78793;SHT31;68134;51.984;5.652;2023-07-08T04:41:43;19.7;58.3
78793;SHT31;68134;51.984;5.652;2023-07-08T04:44:13;19.7;58.6
78793;SHT31;68134;51.984;5.652;2023-07-08T04:46:47;19.8;59.0
78793;SHT31;68134;51.984;5.652;2023-07-08T04:49:22;19.8;59.1
78793;SHT31;68134;51.984;5.652;2023-07-08T04:51:51;19.8;58.9
78793;SHT31;68134;51.984;5.652;2023-07-08T04:54:20;19.8;58.2
78793;SHT31;68134;51.984;5.652;2023-07-08T04:56:49;19.8;58.6
78793;SHT31;68134;51.984;5.652;2023-07-08T04:59:22;19.8;58.9
78793;SHT31;68134;51.984;5.652;2023-07-08T05:01:51;19.8;58.6
78793;SHT31;68134;51.984;5.652;2023-07-08T05:04:22;19.8;58.6
78793;SHT31;68134;51.984;5.652;2023-07-08T05:06:51;19.9;58.2
78793;SHT31;68134;51.984;5.652;2023-07-08T05:09:20;19.9;58.9
78793;SHT31;68134;51.984;5.652;2023-07-08T05:11:52;19.9;57.9
78793;SHT31;68134;51.984;5.652;2023-07-08T05:14:20;20.0;59.0
78793;SHT31;68134;51.984;5.652;2023-07-08T05:16:49;20.0;58.3
78793;SHT31;68134;51.984;5.652;2023-07-08T05:19:18;20.1;57.8
78793;SHT31;68134;51.984;5.652;2023-07-08T05:21:50;20.3;59.5
78793;SHT31;68134;51.984;5.652;2023-07-08T05:24:19;20.5;59.0
78793;SHT31;68134;51.984;5.652;2023-07-08T05:26:48;20.6;57.7
78793;SHT31;68134;51.984;5.652;2023-07-08T05:29:16;20.8;57.7
78793;SHT31;68134;51.984;5.652;2023-07-08T05:31:46;20.9;56.0
78793;SHT31;68134;51.984;5.652;2023-07-08T05:34:15;21.1;57.2
78793;SHT31;68134;51.984;5.652;2023-07-08T05:36:44;21.2;56.4
78793;SHT31;68134;51.984;5.652;2023-07-08T05:39:13;21.4;54.2
78793;SHT31;68134;51.984;5.652;2023-07-08T05:41:41;21.5;54.9
78793;SHT31;68134;51.984;5.652;2023-07-08T05:44:10;21.7;54.9
78793;SHT31;68134;51.984;5.652;2023-07-08T05:46:40;21.9;54.1
78793;SHT31;68134;51.984;5.652;2023-07-08T05:49:09;22.1;53.5
78793;SHT31;68134;51.984;5.652;2023-07-08T05:51:39;22.3;52.9
78793;SHT31;68134;51.984;5.652;2023-07-08T05:54:10;22.4;52.1
78793;SHT31;68134;51.984;5.652;2023-07-08T05:56:39;22.6;52.7
78793;SHT31;68134;51.984;5.652;2023-07-08T05:59:07;22.8;51.8
78793;SHT31;68134;51.984;5.652;2023-07-08T06:01:38;22.9;52.0
78793;SHT31;68134;51.984;5.652;2023-07-08T06:04:06;23.1;49.7
78793;SHT31;68134;51.984;5.652;2023-07-08T06:06:35;23.2;50.8
78793;SHT31;68134;51.984;5.652;2023-07-08T06:09:03;23.4;50.4
78793;SHT31;68134;51.984;5.652;2023-07-08T06:11:32;23.5;49.6
78793;SHT31;68134;51.984;5.652;2023-07-08T06:14:00;23.7;49.5
78793;SHT31;68134;51.984;5.652;2023-07-08T06:16:30;23.8;49.3
78793;SHT31;68134;51.984;5.652;2023-07-08T06:19:03;24.0;48.4
78793;SHT31;68134;51.984;5.652;2023-07-08T06:21:34;24.1;48.9
78793;SHT31;68134;51.984;5.652;2023-07-08T06:24:02;24.3;47.9
78793;SHT31;68134;51.984;5.652;2023-07-08T06:26:31;24.5;47.2
78793;SHT31;68134;51.984;5.652;2023-07-08T06:29:00;24.6;47.2
78793;SHT31;68134;51.984;5.652;2023-07-08T06:31:28;24.7;46.3
78793;SHT31;68134;51.984;5.652;2023-07-08T06:33:57;24.8;45.4
78793;SHT31;68134;51.984;5.652;2023-07-08T06:36:26;25.0;45.3
78793;SHT31;68134;51.984;5.652;2023-07-08T06:38:54;25.1;45.8
78793;SHT31;68134;51.984;5.652;2023-07-08T06:41:25;25.2;46.6
78793;SHT31;68134;51.984;5.652;2023-07-08T06:43:53;25.4;45.6
78793;SHT31;68134;51.984;5.652;2023-07-08T06:46:22;25.5;45.9
78793;SHT31;68134;51.984;5.652;2023-07-08T06:48:51;25.7;44.6
78793;SHT31;68134;51.984;5.652;2023-07-08T06:51:20;25.9;43.1
78793;SHT31;68134;51.984;5.652;2023-07-08T06:53:48;26.1;43.3
78793;SHT31;68134;51.984;5.652;2023-07-08T06:56:17;26.2;42.6
78793;SHT31;68134;51.984;5.652;2023-07-08T06:58:46;26.4;43.6
78793;SHT31;68134;51.984;5.652;2023-07-08T07:01:14;26.5;41.9
78793;SHT31;68134;51.984;5.652;2023-07-08T07:03:43;26.6;43.8
78793;SHT31;68134;51.984;5.652;2023-07-08T07:06:12;26.7;43.7
78793;SHT31;68134;51.984;5.652;2023-07-08T07:08:41;26.9;43.0
78793;SHT31;68134;51.984;5.652;2023-07-08T07:11:09;27.0;42.3
78793;SHT31;68134;51.984;5.652;2023-07-08T07:13:38;27.2;42.9
78793;SHT31;68134;51.984;5.652;2023-07-08T07:16:06;27.4;40.2
78793;SHT31;68134;51.984;5.652;2023-07-08T07:18:35;27.6;40.9
78793;SHT31;68134;51.984;5.652;2023-07-08T07:21:04;27.8;42.7
78793;SHT31;68134;51.984;5.652;2023-07-08T07:23:32;28.0;40.8
78793;SHT31;68134;51.984;5.652;2023-07-08T07:26:01;28.2;40.4
78793;SHT31;68134;51.984;5.652;2023-07-08T07:28:30;28.4;40.7
78793;SHT31;68134;51.984;5.652;2023-07-08T07:31:03;28.6;41.0
78793;SHT31;68134;51.984;5.652;2023-07-08T07:33:33;28.8;40.5
78793;SHT31;68134;51.984;5.652;2023-07-08T07:36:02;29.0;39.5
78793;SHT31;68134;51.984;5.652;2023-07-08T07:38:33;29.2;38.6
78793;SHT31;68134;51.984;5.652;2023-07-08T07:41:02;29.4;40.0
78793;SHT31;68134;51.984;5.652;2023-07-08T07:43:32;29.6;40.0
78793;SHT31;68134;51.984;5.652;2023-07-08T07:46:01;29.8;38.2
78793;SHT31;68134;51.984;5.652;2023-07-08T07:48:32;30.1;38.7
78793;SHT31;68134;51.984;5.652;2023-07-08T07:51:01;30.3;38.2
78793;SHT31;68134;51.984;5.652;2023-07-08T07:53:29;30.5;37.8
78793;SHT31;68134;51.984;5.652;2023-07-08T07:55:59;30.7;37.6
78793;SHT31;68134;51.984;5.652;2023-07-08T07:58:27;30.9;37.1
78793;SHT31;68134;51.984;5.652;2023-07-08T08:00:56;31.1;35.9
78793;SHT31;68134;51.984;5.652;2023-07-08T08:03:27;31.2;35.6
78793;SHT31;68134;51.984;5.652;2023-07-08T08:05:55;31.4;36.6
78793;SHT31;68134;51.984;5.652;2023-07-08T08:08:24;31.6;37.5
78793;SHT31;68134;51.984;5.652;2023-07-08T08:10:53;31.8;36.0
78793;SHT31;68134;51.984;5.652;2023-07-08T08:13:21;32.0;35.1
78793;SHT31;68134;51.984;5.652;2023-07-08T08:15:57;32.1;35.3
78793;SHT31;68134;51.984;5.652;2023-07-08T08:18:26;32.3;34.7
78793;SHT31;68134;51.984;5.652;2023-07-08T08:20:57;32.5;34.5
78793;SHT31;68134;51.984;5.652;2023-07-08T08:23:26;32.7;35.6
78793;SHT31;68134;51.984;5.652;2023-07-08T08:25:54;32.9;34.1
78793;SHT31;68134;51.984;5.652;2023-07-08T08:28:23;33.0;33.2
78793;SHT31;68134;51.984;5.652;2023-07-08T08:30:51;33.1;34.8
78793;SHT31;68134;51.984;5.652;2023-07-08T08:33:20;33.3;34.3
78793;SHT31;68134;51.984;5.652;2023-07-08T08:35:49;33.5;33.6
78793;SHT31;68134;51.984;5.652;2023-07-08T08:38:18;33.6;32.4
78793;SHT31;68134;51.984;5.652;2023-07-08T08:40:46;33.7;34.3
78793;SHT31;68134;51.984;5.652;2023-07-08T08:43:18;33.8;34.6
78793;SHT31;68134;51.984;5.652;2023-07-08T08:45:57;34.0;33.6
78793;SHT31;68134;51.984;5.652;2023-07-08T08:48:30;34.3;32.5
78793;SHT31;68134;51.984;5.652;2023-07-08T08:51:06;34.4;32.0
78793;SHT31;68134;51.984;5.652;2023-07-08T08:53:36;34.6;32.4
78793;SHT31;68134;51.984;5.652;2023-07-08T08:56:13;34.8;32.1
78793;SHT31;68134;51.984;5.652;2023-07-08T08:58:46;35.0;31.2
78793;SHT31;68134;51.984;5.652;2023-07-08T09:01:17;35.1;30.8
78793;SHT31;68134;51.984;5.652;2023-07-08T09:03:50;35.2;31.1
78793;SHT31;68134;51.984;5.652;2023-07-08T09:06:24;35.3;31.6
78793;SHT31;68134;51.984;5.652;2023-07-08T09:08:54;35.4;30.3
78793;SHT31;68134;51.984;5.652;2023-07-08T09:11:38;35.4;32.0
78793;SHT31;68134;51.984;5.652;2023-07-08T09:14:15;35.4;31.9
78793;SHT31;68134;51.984;5.652;2023-07-08T09:16:51;35.5;31.1
78793;SHT31;68134;51.984;5.652;2023-07-08T09:19:26;35.6;31.8
78793;SHT31;68134;51.984;5.652;2023-07-08T09:22:03;35.8;31.5
78793;SHT31;68134;51.984;5.652;2023-07-08T09:24:41;35.9;31.1
78793;SHT31;68134;51.984;5.652;2023-07-08T09:27:11;36.1;30.9
78793;SHT31;68134;51.984;5.652;2023-07-08T09:29:40;36.1;30.0
78793;SHT31;68134;51.984;5.652;2023-07-08T09:32:15;36.2;31.8
78793;SHT31;68134;51.984;5.652;2023-07-08T09:34:50;36.3;30.5
78793;SHT31;68134;51.984;5.652;2023-07-08T09:37:27;36.5;30.1
78793;SHT31;68134;51.984;5.652;2023-07-08T09:39:58;36.6;30.8
78793;SHT31;68134;51.984;5.652;2023-07-08T09:42:29;36.7;30.4
78793;SHT31;68134;51.984;5.652;2023-07-08T09:44:59;36.8;30.3
78793;SHT31;68134;51.984;5.652;2023-07-08T09:47:34;36.9;31.5
78793;SHT31;68134;51.984;5.652;2023-07-08T09:50:03;37.0;30.5
78793;SHT31;68134;51.984;5.652;2023-07-08T09:52:33;37.2;31.1
78793;SHT31;68134;51.984;5.652;2023-07-08T09:55:02;37.3;30.6
78793;SHT31;68134;51.984;5.652;2023-07-08T09:57:33;37.4;29.6
78793;SHT31;68134;51.984;5.652;2023-07-08T10:00:07;37.5;28.5
78793;SHT31;68134;51.984;5.652;2023-07-08T10:02:44;37.5;28.9
78793;SHT31;68134;51.984;5.652;2023-07-08T10:05:18;37.5;29.8
78793;SHT31;68134;51.984;5.652;2023-07-08T10:07:48;37.5;29.8
78793;SHT31;68134;51.984;5.652;2023-07-08T10:10:29;37.6;29.3
78793;SHT31;68134;51.984;5.652;2023-07-08T10:13:01;37.7;29.1
78793;SHT31;68134;51.984;5.652;2023-07-08T10:15:41;37.9;28.9
78793;SHT31;68134;51.984;5.652;2023-07-08T10:18:14;38.0;28.8
78793;SHT31;68134;51.984;5.652;2023-07-08T10:20:53;38.0;28.4
78793;SHT31;68134;51.984;5.652;2023-07-08T10:23:35;38.1;28.4
78793;SHT31;68134;51.984;5.652;2023-07-08T10:26:12;38.1;28.9
78793;SHT31;68134;51.984;5.652;2023-07-08T10:28:46;38.0;29.9
78793;SHT31;68134;51.984;5.652;2023-07-08T10:31:28;38.0;29.6
78793;SHT31;68134;51.984;5.652;2023-07-08T10:34:18;38.0;28.3
78793;SHT31;68134;51.984;5.652;2023-07-08T10:36:56;38.0;29.4
78793;SHT31;68134;51.984;5.652;2023-07-08T10:39:55;38.1;29.0
78793;SHT31;68134;51.984;5.652;2023-07-08T10:42:43;38.3;28.0
78793;SHT31;68134;51.984;5.652;2023-07-08T10:45:17;38.3;28.3
78793;SHT31;68134;51.984;5.652;2023-07-08T10:48:03;38.3;28.6
78793;SHT31;68134;51.984;5.652;2023-07-08T10:50:57;38.3;29.4
78793;SHT31;68134;51.984;5.652;2023-07-08T10:53:40;38.4;27.8
78793;SHT31;68134;51.984;5.652;2023-07-08T10:56:18;38.5;27.2
78793;SHT31;68134;51.984;5.652;2023-07-08T10:59:04;38.6;28.9
78793;SHT31;68134;51.984;5.652;2023-07-08T11:01:44;38.7;27.9
78793;SHT31;68134;51.984;5.652;2023-07-08T11:04:36;38.8;28.0
78793;SHT31;68134;51.984;5.652;2023-07-08T11:07:19;39.0;27.4
78793;SHT31;68134;51.984;5.652;2023-07-08T11:09:55;39.1;27.6
78793;SHT31;68134;51.984;5.652;2023-07-08T11:12:33;39.1;27.7
78793;SHT31;68134;51.984;5.652;2023-07-08T11:15:12;39.1;28.7
78793;SHT31;68134;51.984;5.652;2023-07-08T11:17:45;39.2;29.2
78793;SHT31;68134;51.984;5.652;2023-07-08T11:20:21;39.3;29.2
78793;SHT31;68134;51.984;5.652;2023-07-08T11:22:57;39.4;29.0
78793;SHT31;68134;51.984;5.652;2023-07-08T11:25:31;39.5;29.1
78793;SHT31;68134;51.984;5.652;2023-07-08T11:28:04;39.6;26.9
78793;SHT31;68134;51.984;5.652;2023-07-08T11:30:34;39.7;27.3
78793;SHT31;68134;51.984;5.652;2023-07-08T11:33:15;39.7;27.4
78793;SHT31;68134;51.984;5.652;2023-07-08T11:35:47;39.8;25.8
78793;SHT31;68134;51.984;5.652;2023-07-08T11:38:20;39.9;26.9
78793;SHT31;68134;51.984;5.652;2023-07-08T11:40:55;39.9;25.8
78793;SHT31;68134;51.984;5.652;2023-07-08T11:43:26;40.0;25.8
78793;SHT31;68134;51.984;5.652;2023-07-08T11:45:57;40.0;25.5
78793;SHT31;68134;51.984;5.652;2023-07-08T11:48:29;40.1;26.0
78793;SHT31;68134;51.984;5.652;2023-07-08T11:51:05;40.1;26.4
78793;SHT31;68134;51.984;5.652;2023-07-08T11:53:48;40.2;25.5
78793;SHT31;68134;51.984;5.652;2023-07-08T11:56:22;40.2;26.8
78793;SHT31;68134;51.984;5.652;2023-07-08T11:59:08;40.3;26.7
78793;SHT31;68134;51.984;5.652;2023-07-08T12:01:38;40.4;26.2
78793;SHT31;68134;51.984;5.652;2023-07-08T12:04:26;40.5;27.0
78793;SHT31;68134;51.984;5.652;2023-07-08T12:07:06;40.6;25.5
78793;SHT31;68134;51.984;5.652;2023-07-08T12:09:39;40.7;24.5
78793;SHT31;68134;51.984;5.652;2023-07-08T12:12:17;40.7;24.6
78793;SHT31;68134;51.984;5.652;2023-07-08T12:14:46;40.7;25.7
78793;SHT31;68134;51.984;5.652;2023-07-08T12:17:15;40.7;26.0
78793;SHT31;68134;51.984;5.652;2023-07-08T12:19:47;40.8;27.3
78793;SHT31;68134;51.984;5.652;2023-07-08T12:22:17;40.9;26.1
78793;SHT31;68134;51.984;5.652;2023-07-08T12:24:46;41.0;26.8
78793;SHT31;68134;51.984;5.652;2023-07-08T12:27:14;41.0;26.2
78793;SHT31;68134;51.984;5.652;2023-07-08T12:29:43;41.2;27.0
78793;SHT31;68134;51.984;5.652;2023-07-08T12:32:14;41.3;25.6
78793;SHT31;68134;51.984;5.652;2023-07-08T12:34:43;41.5;25.0
78793;SHT31;68134;51.984;5.652;2023-07-08T12:37:13;41.5;25.2
78793;SHT31;68134;51.984;5.652;2023-07-08T12:39:42;41.6;24.2
78793;SHT31;68134;51.984;5.652;2023-07-08T12:42:12;41.7;24.2
78793;SHT31;68134;51.984;5.652;2023-07-08T12:44:41;41.7;24.1
78793;SHT31;68134;51.984;5.652;2023-07-08T12:47:11;41.7;23.9
78793;SHT31;68134;51.984;5.652;2023-07-08T12:49:39;41.7;24.5
78793;SHT31;68134;51.984;5.652;2023-07-08T12:52:23;41.7;23.0
78793;SHT31;68134;51.984;5.652;2023-07-08T12:54:53;41.7;23.9
78793;SHT31;68134;51.984;5.652;2023-07-08T12:57:25;41.7;24.0
78793;SHT31;68134;51.984;5.652;2023-07-08T12:59:54;41.7;23.5
78793;SHT31;68134;51.984;5.652;2023-07-08T13:02:25;41.7;23.9
78793;SHT31;68134;51.984;5.652;2023-07-08T13:05:00;41.7;23.5
78793;SHT31;68134;51.984;5.652;2023-07-08T13:07:35;41.8;23.3
78793;SHT31;68134;51.984;5.652;2023-07-08T13:10:07;41.8;23.5
78793;SHT31;68134;51.984;5.652;2023-07-08T13:12:39;41.8;23.7
78793;SHT31;68134;51.984;5.652;2023-07-08T13:15:17;41.8;23.8
78793;SHT31;68134;51.984;5.652;2023-07-08T13:17:47;41.7;23.7
78793;SHT31;68134;51.984;5.652;2023-07-08T13:20:19;41.7;22.8
78793;SHT31;68134;51.984;5.652;2023-07-08T13:23:00;41.7;23.6
78793;SHT31;68134;51.984;5.652;2023-07-08T13:25:31;41.6;23.9
78793;SHT31;68134;51.984;5.652;2023-07-08T13:28:11;41.5;24.0
78793;SHT31;68134;51.984;5.652;2023-07-08T13:30:35;41.3;23.9
78793;SHT31;68134;51.984;5.652;2023-07-08T13:33:04;41.1;23.6
78793;SHT31;68134;51.984;5.652;2023-07-08T13:35:41;41.0;24.5
78793;SHT31;68134;51.984;5.652;2023-07-08T14:03:12;39.4;24.9
78793;SHT31;68134;51.984;5.652;2023-07-08T14:05:43;39.2;26.3
78793;SHT31;68134;51.984;5.652;2023-07-08T14:08:16;39.2;25.5
78793;SHT31;68134;51.984;5.652;2023-07-08T14:10:45;39.1;26.9
78793;SHT31;68134;51.984;5.652;2023-07-08T14:13:13;39.1;25.8
78793;SHT31;68134;51.984;5.652;2023-07-08T14:15:45;39.0;27.5
78793;SHT31;68134;51.984;5.652;2023-07-08T14:18:13;38.9;27.7
78793;SHT31;68134;51.984;5.652;2023-07-08T14:20:42;38.8;27.8
78793;SHT31;68134;51.984;5.652;2023-07-08T14:23:11;38.8;26.4
78793;SHT31;68134;51.984;5.652;2023-07-08T14:25:40;38.7;27.3
78793;SHT31;68134;51.984;5.652;2023-07-08T14:28:09;38.7;25.7
78793;SHT31;68134;51.984;5.652;2023-07-08T14:30:44;38.6;26.1
78793;SHT31;68134;51.984;5.652;2023-07-08T14:33:13;38.5;26.2
78793;SHT31;68134;51.984;5.652;2023-07-08T14:35:42;38.4;26.3
78793;SHT31;68134;51.984;5.652;2023-07-08T14:38:12;38.3;26.6
78793;SHT31;68134;51.984;5.652;2023-07-08T14:40:43;38.2;27.0
78793;SHT31;68134;51.984;5.652;2023-07-08T14:43:17;38.1;26.4
78793;SHT31;68134;51.984;5.652;2023-07-08T14:45:49;38.0;26.9
78793;SHT31;68134;51.984;5.652;2023-07-08T14:48:19;38.0;26.7
78793;SHT31;68134;51.984;5.652;2023-07-08T14:50:47;37.9;29.0
